createdAt,value
2023-02-08T00:01:14.675Z,7.07
2023-02-08T00:03:46.133Z,6.15
2023-02-08T00:06:17.812Z,6.13
2023-02-08T00:08:49.034Z,7.05
2023-02-08T00:11:21.334Z,6.63
2023-02-08T00:13:52.496Z,6.55
2023-02-08T00:16:43.259Z,6.63
2023-02-08T00:19:14.193Z,6.85
2023-02-08T00:22:04.680Z,6.60
2023-02-08T00:27:22.683Z,6.63
2023-02-08T00:29:53.404Z,6.43
2023-02-08T00:32:24.582Z,6.97
2023-02-08T00:34:55.951Z,5.97
2023-02-08T00:37:26.552Z,6.32
2023-02-08T00:39:57.401Z,6.00
2023-02-08T00:42:29.153Z,6.95
2023-02-08T00:45:20.084Z,6.68
2023-02-08T00:47:51.227Z,6.28
2023-02-08T00:50:22.423Z,6.50
2023-02-08T00:52:53.607Z,6.70
2023-02-08T00:55:24.754Z,5.72
2023-02-08T00:57:55.662Z,7.20
2023-02-08T01:00:26.683Z,6.07
2023-02-08T01:02:58.608Z,6.32
2023-02-08T01:05:34.786Z,6.50
2023-02-08T01:08:26.838Z,6.60
2023-02-08T01:11:25.035Z,6.45
2023-02-08T01:14:01.808Z,6.25
2023-02-08T01:16:36.543Z,6.93
2023-02-08T01:19:07.756Z,6.32
2023-02-08T01:21:44.561Z,6.20
2023-02-08T01:24:15.626Z,6.53
2023-02-08T01:27:06.530Z,9.05
2023-02-08T01:29:38.920Z,7.75
2023-02-08T01:32:10.486Z,8.20
2023-02-08T01:34:45.054Z,8.02
2023-02-08T01:37:16.237Z,8.10
2023-02-08T01:39:47.428Z,8.68
2023-02-08T01:42:59.500Z,8.13
2023-02-08T01:45:33.639Z,8.45
2023-02-08T01:48:12.665Z,9.63
2023-02-08T01:50:52.477Z,8.50
2023-02-08T01:53:25.689Z,8.02
2023-02-08T01:56:08.511Z,8.82
2023-02-08T01:58:45.942Z,10.13
2023-02-08T02:01:18.058Z,9.27
2023-02-08T02:03:48.991Z,8.45
2023-02-08T02:06:24.886Z,9.13
2023-02-08T02:09:24.270Z,8.68
2023-02-08T02:11:56.819Z,8.77
2023-02-08T02:14:29.762Z,8.38
2023-02-08T02:17:02.972Z,8.60
2023-02-08T02:19:50.926Z,8.70
2023-02-08T02:22:39.432Z,8.60
2023-02-08T02:25:41.747Z,7.90
2023-02-08T02:28:54.898Z,8.02
2023-02-08T02:31:36.609Z,8.55
2023-02-08T02:34:29.777Z,8.80
2023-02-08T02:37:19.081Z,7.97
2023-02-08T02:40:23.287Z,8.27
2023-02-08T02:43:36.887Z,7.85
2023-02-08T02:46:40.130Z,7.60
2023-02-08T02:49:28.785Z,8.10
2023-02-08T02:52:13.627Z,7.82
2023-02-08T02:54:51.570Z,7.30
2023-02-08T02:57:30.847Z,8.10
2023-02-08T03:00:03.542Z,7.20
2023-02-08T03:02:57.098Z,7.38
2023-02-08T03:05:30.275Z,7.25
2023-02-08T03:08:23.451Z,7.32
2023-02-08T03:10:54.073Z,7.75
2023-02-08T03:13:30.617Z,6.85
2023-02-08T03:16:29.512Z,6.78
2023-02-08T03:19:44.879Z,7.18
2023-02-08T03:22:32.303Z,7.07
2023-02-08T03:25:34.186Z,6.40
2023-02-08T03:31:16.454Z,6.60
2023-02-08T03:34:33.927Z,6.80
2023-02-08T03:37:10.044Z,6.60
2023-02-08T03:39:43.265Z,6.55
2023-02-08T03:42:21.061Z,6.13
2023-02-08T03:45:00.669Z,6.75
2023-02-08T03:47:38.155Z,5.82
2023-02-08T03:50:17.124Z,5.95
2023-02-08T03:52:53.537Z,6.25
2023-02-08T03:55:28.022Z,6.43
2023-02-08T03:58:10.445Z,5.53
2023-02-08T04:01:05.906Z,6.10
2023-02-08T04:03:38.855Z,6.22
2023-02-08T04:06:09.662Z,6.28
2023-02-08T04:09:00.511Z,5.63
2023-02-08T04:11:31.466Z,5.72
2023-02-08T04:14:02.395Z,5.95
2023-02-08T04:16:33.423Z,6.07
2023-02-08T04:19:07.036Z,5.40
2023-02-08T04:21:39.580Z,6.13
2023-02-08T04:24:10.727Z,5.47
2023-02-08T04:26:41.787Z,6.28
2023-02-08T04:29:12.982Z,5.25
2023-02-08T04:31:45.481Z,5.82
2023-02-08T04:34:20.450Z,5.15
2023-02-08T04:36:51.737Z,5.23
2023-02-08T04:39:22.910Z,5.15
2023-02-08T04:41:54.121Z,5.55
2023-02-08T04:44:25.564Z,5.30
2023-02-08T04:47:16.440Z,5.22
2023-02-08T04:50:07.918Z,5.28
2023-02-08T04:52:39.563Z,5.72
2023-02-08T04:57:55.368Z,5.32
2023-02-08T05:00:26.392Z,5.30
2023-02-08T05:02:58.654Z,5.05
2023-02-08T05:05:30.152Z,5.15
2023-02-08T05:08:02.091Z,4.80
2023-02-08T05:10:33.414Z,4.97
2023-02-08T05:13:04.735Z,4.93
2023-02-08T05:15:38.042Z,4.57
2023-02-08T05:18:09.331Z,4.88
2023-02-08T05:20:47.277Z,4.75
2023-02-08T05:23:18.455Z,4.82
2023-02-08T05:25:49.594Z,5.53
2023-02-08T05:28:21.326Z,5.20
2023-02-08T05:30:52.818Z,5.13
2023-02-08T05:33:24.231Z,5.18
2023-02-08T05:35:55.524Z,5.13
2023-02-08T05:38:26.837Z,4.15
2023-02-08T05:40:57.909Z,4.85
2023-02-08T05:43:29.059Z,4.70
2023-02-08T05:46:25.143Z,4.30
2023-02-08T05:49:18.566Z,4.20
2023-02-08T05:51:51.704Z,4.07
2023-02-08T05:54:22.855Z,5.20
2023-02-08T05:56:55.979Z,4.43
2023-02-08T05:59:27.594Z,4.63
2023-02-08T06:04:44.648Z,4.10
2023-02-08T06:07:38.445Z,4.22
2023-02-08T06:10:13.294Z,4.25
2023-02-08T06:12:45.312Z,4.63
2023-02-08T06:15:16.755Z,4.55
2023-02-08T06:17:47.802Z,4.88
2023-02-08T06:20:19.069Z,6.05
2023-02-08T06:22:50.232Z,5.30
2023-02-08T06:25:21.368Z,5.15
2023-02-08T06:27:52.688Z,5.65
2023-02-08T06:30:24.052Z,5.63
2023-02-08T06:32:55.214Z,4.88
2023-02-08T06:35:26.394Z,5.28
2023-02-08T06:37:57.554Z,4.63
2023-02-08T06:40:28.946Z,4.75
2023-02-08T06:43:00.102Z,5.50
2023-02-08T06:45:31.219Z,4.93
2023-02-08T06:48:10.111Z,4.97
2023-02-08T06:53:25.281Z,5.35
2023-02-08T06:56:04.862Z,4.68
2023-02-08T07:01:29.529Z,4.55
2023-02-08T07:04:00.535Z,5.05
2023-02-08T07:06:31.715Z,4.63
2023-02-08T07:09:04.133Z,5.03
2023-02-08T07:11:35.248Z,4.72
2023-02-08T07:14:07.016Z,4.82
2023-02-08T07:16:38.305Z,4.85
2023-02-08T07:19:09.842Z,4.65
2023-02-08T07:21:41.115Z,4.38
2023-02-08T07:24:12.339Z,4.53
2023-02-08T07:27:04.569Z,4.32
2023-02-08T07:30:08.204Z,4.35
2023-02-08T07:32:39.323Z,4.57
2023-02-08T07:35:31.920Z,4.00
2023-02-08T07:38:03.214Z,4.30
2023-02-08T07:40:34.464Z,4.75
2023-02-08T07:43:05.660Z,3.95
2023-02-08T07:45:49.553Z,4.15
2023-02-08T07:48:20.584Z,3.80
2023-02-08T07:50:51.927Z,4.00
2023-02-08T07:53:23.155Z,4.38
2023-02-08T07:56:15.522Z,4.40
2023-02-08T07:58:47.193Z,4.22
2023-02-08T08:01:22.216Z,4.60
2023-02-08T08:03:54.780Z,3.90
2023-02-08T08:06:26.359Z,4.20
2023-02-08T08:08:57.654Z,3.90
2023-02-08T08:14:32.397Z,3.78
2023-02-08T08:17:05.452Z,3.70
2023-02-08T08:19:36.717Z,4.18
2023-02-08T08:22:07.873Z,4.55
2023-02-08T08:24:39.362Z,4.38
2023-02-08T08:27:13.157Z,4.25
2023-02-08T08:29:44.336Z,4.00
2023-02-08T08:32:16.385Z,3.78
2023-02-08T08:34:47.719Z,4.45
2023-02-08T08:37:37.663Z,3.90
2023-02-08T08:40:30.114Z,3.47
2023-02-08T08:43:01.465Z,6.15
2023-02-08T08:45:35.135Z,3.95
2023-02-08T08:48:29.137Z,4.32
2023-02-08T08:51:20.022Z,3.80
2023-02-08T08:53:51.132Z,4.03
2023-02-08T08:56:22.419Z,4.25
2023-02-08T08:58:53.725Z,4.10
2023-02-08T09:01:25.083Z,5.13
2023-02-08T09:04:16.426Z,5.18
2023-02-08T09:07:11.665Z,4.63
2023-02-08T09:09:44.216Z,4.55
2023-02-08T09:12:16.594Z,4.63
2023-02-08T09:15:10.520Z,6.57
2023-02-08T09:17:47.206Z,6.50
2023-02-08T09:20:18.553Z,6.45
2023-02-08T09:22:50.088Z,5.38
2023-02-08T09:25:21.306Z,5.97
2023-02-08T09:27:52.592Z,6.00
2023-02-08T09:30:25.551Z,6.15
2023-02-08T09:32:56.564Z,6.30
2023-02-08T09:35:49.735Z,5.50
2023-02-08T09:38:26.406Z,6.15
2023-02-08T09:41:03.450Z,5.70
2023-02-08T09:43:38.313Z,13.80
2023-02-08T09:46:24.766Z,5.88
2023-02-08T09:48:59.632Z,5.75
2023-02-08T09:51:47.210Z,8.10
2023-02-08T09:54:42.874Z,8.55
2023-02-08T09:57:46.076Z,7.90
2023-02-08T10:00:27.793Z,7.65
2023-02-08T10:03:05.630Z,7.45
2023-02-08T10:05:41.225Z,6.97
2023-02-08T10:08:15.013Z,6.85
2023-02-08T10:11:14.893Z,7.28
2023-02-08T10:14:16.100Z,7.35
2023-02-08T10:17:26.053Z,7.03
2023-02-08T10:20:07.297Z,6.72
2023-02-08T10:23:10.375Z,6.25
2023-02-08T10:28:51.354Z,6.63
2023-02-08T10:31:40.572Z,7.00
2023-02-08T10:35:01.156Z,6.43
2023-02-08T10:37:38.220Z,6.22
2023-02-08T10:40:40.110Z,6.00
2023-02-08T10:43:39.526Z,6.18
2023-02-08T10:46:54.681Z,6.47
2023-02-08T10:49:46.928Z,6.72
2023-02-08T10:52:18.214Z,6.40
2023-02-08T10:54:49.106Z,6.35
2023-02-08T10:57:37.033Z,6.57
2023-02-08T11:00:13.608Z,6.95
2023-02-08T11:02:45.668Z,6.63
2023-02-08T11:05:34.764Z,6.75
2023-02-08T11:08:48.293Z,6.60
2023-02-08T11:11:19.717Z,7.18
2023-02-08T11:14:17.561Z,7.07
2023-02-08T11:17:33.329Z,6.45
2023-02-08T11:20:04.651Z,6.13
2023-02-08T11:22:36.469Z,5.80
2023-02-08T11:25:30.279Z,6.00
2023-02-08T11:28:02.840Z,6.33
2023-02-08T11:30:35.105Z,5.97
2023-02-08T11:33:24.393Z,6.20
2023-02-08T11:36:14.799Z,5.80
2023-02-08T11:39:07.328Z,5.97
2023-02-08T11:41:38.840Z,5.90
2023-02-08T11:44:24.766Z,6.22
2023-02-08T11:47:24.858Z,5.80
2023-02-08T11:50:18.815Z,6.22
2023-02-08T11:53:02.628Z,5.88
2023-02-08T11:55:38.424Z,6.25
2023-02-08T11:58:16.873Z,6.35
2023-02-08T12:01:08.164Z,5.78
2023-02-08T12:03:42.091Z,5.88
2023-02-08T12:06:54.198Z,6.10
2023-02-08T12:10:01.746Z,6.10
2023-02-08T12:12:58.404Z,6.60
2023-02-08T12:15:58.919Z,5.60
2023-02-08T12:19:24.273Z,5.28
2023-02-08T12:22:08.647Z,6.03
2023-02-08T12:24:50.788Z,5.80
2023-02-08T12:27:45.286Z,5.93
2023-02-08T12:39:45.099Z,4.68
2023-02-08T12:42:53.084Z,5.07
2023-02-08T12:45:46.008Z,5.45
2023-02-08T12:48:20.359Z,5.43
2023-02-08T12:51:19.241Z,5.85
2023-02-08T12:53:59.162Z,5.28
2023-02-08T12:56:37.658Z,5.78
2023-02-08T12:59:35.371Z,4.95
2023-02-08T13:03:05.853Z,5.35
2023-02-08T13:05:50.751Z,5.22
2023-02-08T13:12:01.948Z,6.18
2023-02-08T13:14:44.813Z,4.70
2023-02-08T13:17:23.181Z,5.60
2023-02-08T13:20:31.418Z,5.07
2023-02-08T13:23:30.703Z,5.57
2023-02-08T13:26:35.447Z,5.10
2023-02-08T13:29:08.016Z,5.18
2023-02-08T13:31:48.465Z,5.07
2023-02-08T13:34:22.313Z,5.05
2023-02-08T13:37:01.035Z,5.55
2023-02-08T13:39:44.129Z,5.32
2023-02-08T13:42:46.975Z,5.40
2023-02-08T13:45:33.353Z,4.68
2023-02-08T13:48:16.600Z,4.85
2023-02-08T13:50:57.092Z,5.43
2023-02-08T13:53:43.588Z,5.15
2023-02-08T13:56:15.856Z,4.63
2023-02-08T13:59:20.028Z,5.30
2023-02-08T14:02:23.790Z,5.32
2023-02-08T14:08:25.957Z,5.07
2023-02-08T14:11:27.848Z,4.60
2023-02-08T14:14:20.271Z,4.88
2023-02-08T14:17:31.940Z,5.57
2023-02-08T14:20:07.691Z,4.57
2023-02-08T14:22:53.878Z,4.82
2023-02-08T14:25:40.768Z,5.00
2023-02-08T14:28:29.108Z,5.25
2023-02-08T14:31:03.323Z,4.70
2023-02-08T14:33:53.622Z,4.60
2023-02-08T14:37:00.431Z,5.10
2023-02-08T14:39:36.815Z,5.25
2023-02-08T14:45:58.218Z,4.25
2023-02-08T14:51:50.349Z,4.63
2023-02-08T14:54:42.006Z,4.82
2023-02-08T14:57:42.725Z,4.60
2023-02-08T15:00:31.595Z,4.70
2023-02-08T15:03:07.372Z,4.35
2023-02-08T15:05:48.741Z,4.43
2023-02-08T15:08:40.811Z,4.57
2023-02-08T15:11:34.384Z,4.55
2023-02-08T15:14:12.085Z,4.72
2023-02-08T15:16:48.498Z,4.82
2023-02-08T15:19:43.715Z,4.55
2023-02-08T15:22:34.066Z,4.50
2023-02-08T15:25:44.315Z,4.78
2023-02-08T15:28:41.331Z,4.47
2023-02-08T15:31:49.655Z,4.68
2023-02-08T15:34:47.273Z,4.65
2023-02-08T15:37:21.704Z,4.72
2023-02-08T15:39:59.299Z,4.65
2023-02-08T15:42:50.222Z,4.68
2023-02-08T15:45:33.054Z,4.10
2023-02-08T15:48:04.865Z,4.55
2023-02-08T15:50:37.621Z,4.65
2023-02-08T15:53:15.360Z,4.47
2023-02-08T15:55:57.431Z,4.30
2023-02-08T15:58:41.308Z,4.25
2023-02-08T16:01:21.814Z,4.10
2023-02-08T16:04:22.298Z,4.30
2023-02-08T16:06:57.405Z,4.25
2023-02-08T16:09:32.969Z,4.70
2023-02-08T16:12:04.407Z,4.22
2023-02-08T16:14:51.838Z,4.50
2023-02-08T16:17:47.910Z,4.55
2023-02-08T16:20:38.068Z,4.55
2023-02-08T16:23:28.537Z,4.20
2023-02-08T16:26:21.478Z,3.92
2023-02-08T16:29:01.478Z,3.85
2023-02-08T16:31:55.666Z,4.22
2023-02-08T16:34:27.101Z,4.50
2023-02-08T16:36:58.508Z,4.30
2023-02-08T16:42:47.295Z,4.60
2023-02-08T16:45:21.818Z,4.90
2023-02-08T16:48:13.438Z,4.93
2023-02-08T16:50:48.680Z,4.65
2023-02-08T16:53:19.776Z,4.70
2023-02-08T16:55:52.108Z,4.88
2023-02-08T16:58:24.848Z,3.90
2023-02-08T17:00:56.573Z,4.70
2023-02-08T17:03:31.044Z,3.85
2023-02-08T17:06:03.848Z,4.13
2023-02-08T17:08:54.485Z,4.32
2023-02-08T17:11:25.743Z,4.60
2023-02-08T17:13:57.096Z,3.90
2023-02-08T17:16:31.109Z,4.30
2023-02-08T17:21:33.551Z,3.67
2023-02-08T17:24:04.914Z,4.13
2023-02-08T17:26:41.594Z,4.00
2023-02-08T17:29:15.271Z,4.47
2023-02-08T17:31:47.292Z,4.22
2023-02-08T17:34:38.378Z,4.47
2023-02-08T17:37:10.362Z,3.80
2023-02-08T17:39:43.691Z,4.25
2023-02-08T17:42:14.722Z,4.10
2023-02-08T17:44:51.725Z,4.05
2023-02-08T17:47:22.753Z,4.43
2023-02-08T17:49:53.948Z,4.10
2023-02-08T17:52:25.075Z,3.65
2023-02-08T17:54:56.265Z,4.47
2023-02-08T17:57:40.135Z,4.03
2023-02-08T18:00:18.414Z,4.05
2023-02-08T18:02:53.593Z,4.00
2023-02-08T18:05:28.098Z,4.32
2023-02-08T18:07:59.720Z,4.13
2023-02-08T18:10:30.812Z,3.88
2023-02-08T18:13:01.664Z,3.90
2023-02-08T18:15:32.706Z,4.13
2023-02-08T18:18:05.216Z,4.38
2023-02-08T18:20:36.128Z,4.53
2023-02-08T18:23:26.921Z,3.40
2023-02-08T18:26:07.477Z,4.28
2023-02-08T18:28:38.887Z,3.92
2023-02-08T18:31:16.109Z,3.92
2023-02-08T18:33:47.524Z,3.80
2023-02-08T18:36:19.369Z,4.18
2023-02-08T18:38:52.839Z,3.53
2023-02-08T18:41:27.106Z,4.03
2023-02-08T18:44:00.190Z,4.13
2023-02-08T18:46:40.110Z,3.63
2023-02-08T18:49:19.653Z,3.55
2023-02-08T18:51:50.853Z,3.70
2023-02-08T18:54:47.331Z,3.65
2023-02-08T18:57:18.546Z,3.88
2023-02-08T18:59:55.697Z,3.78
2023-02-08T19:02:29.651Z,3.92
2023-02-08T19:05:00.320Z,3.80
2023-02-08T19:07:31.466Z,3.80
2023-02-08T19:10:02.860Z,3.60
2023-02-08T19:12:34.060Z,3.60
2023-02-08T19:15:05.171Z,3.45
2023-02-08T19:17:36.099Z,3.83
2023-02-08T19:20:07.469Z,3.65
2023-02-08T19:22:38.453Z,3.75
2023-02-08T19:25:09.742Z,3.80
2023-02-08T19:27:40.595Z,3.83
2023-02-08T19:30:18.495Z,3.80
2023-02-08T19:32:49.392Z,3.58
2023-02-08T19:35:21.054Z,3.33
2023-02-08T19:37:54.221Z,3.75
2023-02-08T19:40:30.308Z,3.43
2023-02-08T19:43:06.419Z,3.60
2023-02-08T19:45:37.665Z,3.25
2023-02-08T19:48:11.653Z,3.63
2023-02-08T19:50:44.251Z,3.60
2023-02-08T19:53:15.252Z,3.50
2023-02-08T19:55:46.200Z,3.25
2023-02-08T19:58:17.713Z,3.75
2023-02-08T20:00:48.916Z,3.63
2023-02-08T20:03:22.159Z,3.28
2023-02-08T20:05:59.263Z,3.17
2023-02-08T20:08:33.077Z,3.20
2023-02-08T20:11:03.815Z,3.33
2023-02-08T20:13:34.618Z,3.20
2023-02-08T20:16:05.428Z,3.40
2023-02-08T20:18:36.105Z,3.00
2023-02-08T20:23:52.940Z,3.38
2023-02-08T20:26:31.804Z,3.28
2023-02-08T20:29:02.686Z,3.50
2023-02-08T20:31:39.398Z,3.08
2023-02-08T20:34:12.786Z,3.17
2023-02-08T20:36:57.384Z,3.10
2023-02-08T20:39:33.276Z,3.40
2023-02-08T20:42:23.881Z,3.22
2023-02-08T20:45:06.647Z,3.30
2023-02-08T20:47:59.978Z,3.67
2023-02-08T20:50:33.336Z,3.55
2023-02-08T20:53:04.074Z,3.53
2023-02-08T20:55:34.838Z,4.03
2023-02-08T21:00:53.561Z,2.92
2023-02-08T21:03:25.037Z,3.45
2023-02-08T21:05:59.073Z,3.10
2023-02-08T21:08:37.892Z,3.17
2023-02-08T21:11:09.452Z,3.15
2023-02-08T21:13:41.206Z,3.03
2023-02-08T21:16:12.878Z,3.60
2023-02-08T21:18:53.530Z,3.35
2023-02-08T21:21:34.929Z,3.42
2023-02-08T21:24:06.289Z,3.25
2023-02-08T21:26:42.356Z,3.50
2023-02-08T21:29:14.071Z,3.58
2023-02-08T21:31:45.126Z,3.08
2023-02-08T21:34:19.585Z,3.60
2023-02-08T21:36:53.738Z,3.65
2023-02-08T21:39:30.527Z,3.53
2023-02-08T21:42:01.556Z,3.20
2023-02-08T21:44:36.194Z,3.67
2023-02-08T21:47:08.408Z,3.38
2023-02-08T21:49:57.487Z,3.83
2023-02-08T21:52:46.774Z,2.90
2023-02-08T21:55:17.946Z,3.78
2023-02-08T21:57:49.361Z,3.10
2023-02-08T22:00:23.704Z,3.17
2023-02-08T22:02:55.040Z,2.90
2023-02-08T22:06:06.268Z,3.42
2023-02-08T22:08:59.795Z,3.53
2023-02-08T22:11:30.749Z,2.90
2023-02-08T22:14:24.512Z,3.28
2023-02-08T22:16:55.569Z,3.27
2023-02-08T22:19:26.531Z,4.22
2023-02-08T22:21:57.443Z,3.75
2023-02-08T22:24:28.490Z,3.60
2023-02-08T22:27:19.495Z,3.70
2023-02-08T22:29:50.686Z,4.05
2023-02-08T22:32:22.051Z,3.97
2023-02-08T22:34:52.961Z,3.58
2023-02-08T22:37:27.563Z,3.85
2023-02-08T22:39:58.786Z,3.90
2023-02-08T22:42:30.960Z,3.40
2023-02-08T22:45:02.793Z,4.32
2023-02-08T22:47:37.213Z,3.50
2023-02-08T22:50:09.804Z,3.88
2023-02-08T22:52:40.684Z,3.75
2023-02-08T22:55:11.524Z,3.97
2023-02-08T22:57:44.650Z,3.30
2023-02-08T23:00:17.214Z,3.50
2023-02-08T23:02:47.947Z,3.50
2023-02-08T23:05:20.201Z,3.55
2023-02-08T23:07:51.186Z,3.67
2023-02-08T23:10:24.982Z,3.45
2023-02-08T23:12:55.979Z,3.85
2023-02-08T23:15:26.644Z,3.92
2023-02-08T23:18:26.743Z,3.60
2023-02-08T23:21:01.794Z,3.65
2023-02-08T23:23:32.791Z,3.72
2023-02-08T23:26:07.422Z,3.40
2023-02-08T23:28:38.799Z,3.53
2023-02-08T23:31:14.162Z,3.63
2023-02-08T23:33:45.285Z,3.65
2023-02-08T23:36:18.580Z,3.40
2023-02-08T23:39:17.700Z,3.35
2023-02-08T23:41:50.579Z,3.78
2023-02-08T23:44:24.899Z,3.30
2023-02-08T23:46:55.600Z,3.72
2023-02-08T23:49:26.327Z,3.20
2023-02-08T23:54:43.772Z,3.67
2023-02-08T23:57:18.186Z,3.80
2023-02-08T23:59:49.357Z,3.72
